Nearby METAR Reports

 

KSJC - San Jose, California, USA
Distance from station: NE 14km
Updated: 23/06/2021 02:53
Few Clouds
Few Clouds
 Wind from NNW
Wind: NNW 19 km/h
Temperature: 24°C
Dew Point: 13°C
Humidity: 50%
Barometer: 1010.2 hPa
Clouds: Few Clouds
Visibility: 16 km
Cloud details: Few Clouds 366 m
Few Clouds 914 m
2021/06/23 00:53 KSJC 230053Z 33010KT 10SM FEW012 FEW030 24/13 A2983 RMK AO2 SLP099 T02440128
KNUQ - Moffett Nas/Mtn, California, USA
Distance from station: N 14km
Updated: 23/06/2021 03:15
Clear
Clear
 Wind from N
Wind: N 28 km/h
Temperature: 23°C
Dew Point: 13°C
Humidity: 53%
Barometer: 1010.2 hPa
Clouds: Clear
Visibility: 16 km
2021/06/23 01:15 KNUQ 230115Z AUTO 36015KT 10SM CLR 23/13 A2983 RMK AO2
 
KPAO - Palo Alto, California, USA
Distance from station: NNW 23km
Updated: 23/06/2021 02:47
Clear
Clear
 Wind from N
Wind: N 30 km/h, Gust: 37 km/h
Temperature: 23°C
Dew Point: 14°C
Humidity: 57%
Barometer: 1010.2 hPa
Clouds: Clear
Visibility: 16 km
2021/06/23 00:47 KPAO 230047Z 36016G20KT 10SM SKC 23/14 A2983
KRHV - San Jose/Reid, California, USA
Distance from station: ENE 19km
Updated: 23/06/2021 02:50
Clear
Clear
 Wind from W
Wind: W 17 km/h
Temperature: 26°C
Dew Point: 13°C
Humidity: 45%
Barometer: 1010.2 hPa
Clouds: Clear
Visibility: 16 km
2021/06/23 00:50 KRHV 230050Z 26009KT 10SM SKC 26/13 A2983
 
KOAK - Oakland, California, USA
Distance from station: NNW 50km
Updated: 23/06/2021 02:53
Few Clouds
Few Clouds
 Wind from WNW
Wind: WNW 22 km/h, Gust: 33 km/h
Temperature: 21°C
Dew Point: 13°C
Humidity: 60%
Barometer: 1011.2 hPa
Clouds: Few Clouds
Visibility: 16 km
Cloud details: Few Clouds 305 m
2021/06/23 00:53 KOAK 230053Z 30012G18KT 10SM FEW010 21/13 A2986 RMK AO2 SLP111 T02110128
KSQL - San Carlos Airpo, California, USA
Distance from station: NW 34km
Updated: 23/06/2021 02:47
Clear
Clear
 Wind from WSW
Wind: WSW 17 km/h
Temperature: 22°C
Dew Point: 12°C
Humidity: 53%
Barometer: 1010.5 hPa
Clouds: Clear
Visibility: 16 km
2021/06/23 00:47 KSQL 230047Z 25009KT 10SM SKC 22/12 A2984
 
KSFO - San Francisco, California, USA
Distance from station: NW 49km
Updated: 23/06/2021 02:56
Few Clouds
Few Clouds
 Wind from SW
Wind: SW 33 km/h, Gust: 44 km/h
Temperature: 22°C
Dew Point: 11°C
Humidity: 50%
Barometer: 1010.5 hPa
Clouds: Few Clouds
Visibility: 16 km
Cloud details: Few Clouds 549 m
2021/06/23 00:56 KSFO 230056Z 22018G24KT 10SM FEW018 22/11 A2984 RMK AO2 PK WND 21027/2359 SLP104 T02220111
KE16 - San Martin, California, USA
Distance from station: ESE 43km
Updated: 23/06/2021 03:15
Clear
Clear
 Wind from SSW
Wind: SSW 20 km/h, Gust: 28 km/h
Temperature: 21°C
Dew Point: 11°C
Humidity: 53%
Barometer: 1011.5 hPa
Clouds: Clear
Visibility: 16 km
2021/06/23 01:15 KE16 230115Z AUTO 20011G15KT 10SM CLR 21/11 A2987 RMK AO2 PWINO PNO
 
KWVI - Watsonville, California, USA
Distance from station: SSE 44km
Updated: 23/06/2021 02:53
Clear
Clear
 Wind from W
Wind: W 19 km/h
Temperature: 19°C
Dew Point: 12°C
Humidity: 64%
Barometer: 1012.9 hPa
Clouds: Clear
Visibility: 16 km
2021/06/23 00:53 KWVI 230053Z AUTO 27010KT 10SM CLR 19/12 A2991 RMK AO2 SLP128 T01890122
KHAF - Half Moon Bay, California, USA
Distance from station: WNW 50km
Updated: 23/06/2021 03:15
Partly cloudy
Partly cloudy
 Wind from SSE
Wind: SSE 11 km/h
Temperature: 16°C
Dew Point: 13°C
Humidity: 83%
Barometer: 1012.5 hPa
Clouds: Partly cloudy
Visibility: 16 km
Cloud details: Partly cloudy 396 m
2021/06/23 01:15 KHAF 230115Z AUTO 15006KT 10SM SCT013 16/13 A2990 RMK AO2
 
KHWD - Hayward, California, USA
Distance from station: N 44km
Updated: 23/06/2021 02:54
Clear
Clear
 Wind from WNW
Wind: WNW 20 km/h
Temperature: 21°C
Dew Point: 13°C
Humidity: 60%
Barometer: 1010.8 hPa
Clouds: Clear
Visibility: 16 km
2021/06/23 00:54 KHWD 230054Z 29011KT 10SM CLR 21/13 A2985 RMK AO2 SLP117 T02110128
KLVK - Livermore, California, USA
Distance from station: NNE 51km
Updated: 23/06/2021 02:53
Clear
Clear
 Wind from WNW
Wind: WNW 22 km/h
Temperature: 24°C
Dew Point: 11°C
Humidity: 44%
Barometer: 1009.8 hPa
Clouds: Clear
Visibility: 16 km
2021/06/23 00:53 KLVK 230053Z 30012KT 10SM CLR 24/11 A2982 RMK AO2 SLP094 T02390111